createdAt,value
2022-08-08T00:02:31.047Z,102244.09
2022-08-08T00:04:53.230Z,102253.13
2022-08-08T00:07:41.086Z,102247.75
2022-08-08T00:10:18.246Z,102240.44
2022-08-08T00:13:10.234Z,102241.25
2022-08-08T00:16:01.842Z,102240.88
2022-08-08T00:18:55.003Z,102237.34
2022-08-08T00:21:29.565Z,102237.22
2022-08-08T00:24:19.602Z,102238.94
2022-08-08T00:26:56.452Z,102237.47
2022-08-08T00:29:44.799Z,102244.03
2022-08-08T00:32:40.379Z,102232.34
2022-08-08T00:35:20.125Z,102237.81
2022-08-08T00:38:03.045Z,102230.16
2022-08-08T00:41:10.766Z,102229.56
2022-08-08T00:43:45.627Z,102232.22
2022-08-08T00:46:57.991Z,102230.69
2022-08-08T00:49:58.381Z,102224.59
2022-08-08T00:52:48.798Z,102236.41
2022-08-08T00:55:59.206Z,102241.06
2022-08-08T00:58:54.450Z,102234.13
2022-08-08T01:01:29.365Z,102229.97
2022-08-08T01:04:29.699Z,102225.75
2022-08-08T01:07:01.316Z,102228.81
2022-08-08T01:09:48.692Z,102222.59
2022-08-08T01:12:37.522Z,102219.28
2022-08-08T01:15:37.197Z,102234.78
2022-08-08T01:18:25.405Z,102226.72
2022-08-08T01:22:01.674Z,102233.69
2022-08-08T01:24:21.429Z,102227.47
2022-08-08T01:26:57.510Z,102232.72
2022-08-08T01:29:27.981Z,102229.03
2022-08-08T01:32:22.879Z,102232.22
2022-08-08T01:35:00.996Z,102229.53
2022-08-08T01:38:19.127Z,102234.38
2022-08-08T01:41:16.068Z,102234.25
2022-08-08T01:43:50.718Z,102233.25
2022-08-08T01:46:41.711Z,102232.75
2022-08-08T01:49:23.226Z,102238.38
2022-08-08T01:52:58.954Z,102240.94
2022-08-08T01:56:28.454Z,102243.75
2022-08-08T01:58:46.410Z,102238.38
2022-08-08T02:01:28.098Z,102235.34
2022-08-08T02:04:30.249Z,102236.34
2022-08-08T02:07:20.174Z,102233.06
2022-08-08T02:10:11.625Z,102229.16
2022-08-08T02:12:57.702Z,102245.38
2022-08-08T02:15:43.166Z,102226.28
2022-08-08T02:18:15.688Z,102235.56
2022-08-08T02:21:18.165Z,102243.72
2022-08-08T02:23:55.523Z,102236.03
2022-08-08T02:26:30.188Z,102234.50
2022-08-08T02:28:57.466Z,102235.72
2022-08-08T02:31:59.654Z,102238.50
2022-08-08T02:34:37.678Z,102240.47
2022-08-08T02:37:52.905Z,102243.25
2022-08-08T02:40:28.009Z,102238.13
2022-08-08T02:44:42.758Z,102239.97
2022-08-08T02:46:29.660Z,102234.25
2022-08-08T02:49:48.207Z,102244.84
2022-08-08T02:52:50.766Z,102254.09
2022-08-08T02:55:37.640Z,102247.25
2022-08-08T02:58:43.031Z,102246.28
2022-08-08T03:01:32.493Z,102240.84
2022-08-08T03:05:02.329Z,102251.31
2022-08-08T03:07:23.580Z,102254.56
2022-08-08T03:10:32.956Z,102263.47
2022-08-08T03:16:00.167Z,102262.38
2022-08-08T03:16:39.675Z,102264.19
2022-08-08T03:19:21.750Z,102271.75
2022-08-08T03:21:58.905Z,102264.44
2022-08-08T03:24:26.621Z,102274.81
2022-08-08T03:27:21.699Z,102266.91
2022-08-08T03:29:56.879Z,102262.28
2022-08-08T03:32:42.447Z,102268.22
2022-08-08T03:35:22.584Z,102265.03
2022-08-08T03:38:54.213Z,102275.53
2022-08-08T03:40:36.943Z,102275.00
2022-08-08T03:43:15.802Z,102266.47
2022-08-08T03:46:05.288Z,102265.63
2022-08-08T03:49:09.700Z,102270.22
2022-08-08T03:51:19.356Z,102277.88
2022-08-08T03:53:54.944Z,102281.91
2022-08-08T03:56:31.170Z,102279.78
2022-08-08T03:58:58.888Z,102290.16
2022-08-08T04:02:31.739Z,102275.75
2022-08-08T04:04:30.600Z,102279.28
2022-08-08T04:07:01.291Z,102279.16
2022-08-08T04:09:30.808Z,102287.09
2022-08-08T04:12:15.735Z,102281.72
2022-08-08T04:14:44.935Z,102297.34
2022-08-08T04:17:22.901Z,102292.53
2022-08-08T04:19:59.033Z,102289.34
2022-08-08T04:22:30.330Z,102283.47
2022-08-08T04:24:56.955Z,102283.94
2022-08-08T04:28:02.154Z,102284.28
2022-08-08T04:30:17.725Z,102291.53
2022-08-08T04:32:48.105Z,102294.44
2022-08-08T04:35:18.295Z,102292.09
2022-08-08T04:37:49.341Z,102294.13
2022-08-08T04:40:15.863Z,102296.03
2022-08-08T04:42:46.732Z,102284.63
2022-08-08T04:45:27.140Z,102282.81
2022-08-08T04:47:54.399Z,102285.41
2022-08-08T04:50:25.296Z,102286.59
2022-08-08T04:53:00.696Z,102287.63
2022-08-08T04:55:47.434Z,102284.97
2022-08-08T04:58:18.476Z,102290.38
2022-08-08T05:00:45.088Z,102287.72
2022-08-08T05:03:15.963Z,102291.28
2022-08-08T05:06:01.296Z,102290.31
2022-08-08T05:08:40.415Z,102291.22
2022-08-08T05:11:07.926Z,102297.59
2022-08-08T05:13:34.475Z,102301.72
2022-08-08T05:16:53.188Z,102296.34
2022-08-08T05:18:47.694Z,102297.22
2022-08-08T05:21:15.880Z,102308.97
2022-08-08T05:23:46.239Z,102302.84
2022-08-08T05:26:16.050Z,102301.44
2022-08-08T05:28:55.963Z,102302.00
2022-08-08T05:32:05.097Z,102296.47
2022-08-08T05:34:26.507Z,102305.66
2022-08-08T05:36:56.491Z,102301.59
2022-08-08T05:39:23.985Z,102304.56
2022-08-08T05:41:57.981Z,102310.78
2022-08-08T05:44:31.151Z,102300.88
2022-08-08T05:47:03.040Z,102311.66
2022-08-08T05:49:31.339Z,102307.22
2022-08-08T05:51:57.755Z,102307.06
2022-08-08T05:54:43.257Z,102314.44
2022-08-08T05:57:57.568Z,102313.69
2022-08-08T06:00:22.539Z,102314.91
2022-08-08T06:03:17.514Z,102325.06
2022-08-08T06:05:59.190Z,102326.13
2022-08-08T06:08:33.450Z,102328.31
2022-08-08T06:11:01.121Z,102329.38
2022-08-08T06:13:29.998Z,102321.31
2022-08-08T06:16:02.913Z,102334.13
2022-08-08T06:18:30.069Z,102330.03
2022-08-08T06:20:59.260Z,102337.19
2022-08-08T06:23:48.809Z,102337.13
2022-08-08T06:26:43.291Z,102346.00
2022-08-08T06:29:26.467Z,102336.78
2022-08-08T06:32:10.282Z,102339.28
2022-08-08T06:34:56.703Z,102344.25
2022-08-08T06:37:37.957Z,102350.78
2022-08-08T06:40:10.468Z,102350.03
2022-08-08T06:42:51.423Z,102350.13
2022-08-08T06:45:23.068Z,102355.25
2022-08-08T06:48:01.072Z,102356.31
2022-08-08T06:50:33.851Z,102360.47
2022-08-08T06:53:14.015Z,102355.41
2022-08-08T06:55:47.259Z,102353.28
2022-08-08T06:58:30.418Z,102349.06
2022-08-08T07:01:00.874Z,102354.50
2022-08-08T07:04:37.533Z,102351.28
2022-08-08T07:06:46.689Z,102363.53
2022-08-08T07:09:21.087Z,102361.63
2022-08-08T07:11:54.769Z,102355.22
2022-08-08T07:14:27.806Z,102352.47
2022-08-08T07:17:14.389Z,102357.38
2022-08-08T07:20:07.712Z,102354.84
2022-08-08T07:22:49.471Z,102361.59
2022-08-08T07:25:19.385Z,102356.16
2022-08-08T07:28:02.286Z,102362.91
2022-08-08T07:30:31.426Z,102356.13
2022-08-08T07:32:59.193Z,102360.16
2022-08-08T07:35:28.658Z,102355.69
2022-08-08T07:38:04.948Z,102352.47
2022-08-08T07:40:45.723Z,102359.38
2022-08-08T07:43:14.866Z,102354.94
2022-08-08T07:46:05.714Z,102354.88
2022-08-08T07:48:30.210Z,102357.38
2022-08-08T07:51:00.795Z,102365.97
2022-08-08T07:54:01.906Z,102366.75
2022-08-08T07:56:37.413Z,102363.59
2022-08-08T07:59:10.999Z,102378.94
2022-08-08T08:02:34.328Z,102374.03
2022-08-08T08:04:42.092Z,102381.69
2022-08-08T08:07:10.438Z,102371.72
2022-08-08T08:09:40.094Z,102377.72
2022-08-08T08:12:09.953Z,102387.09
2022-08-08T08:15:05.311Z,102381.41
2022-08-08T08:17:45.070Z,102384.56
2022-08-08T08:20:18.299Z,102378.56
2022-08-08T08:22:45.055Z,102386.06
2022-08-08T08:25:19.177Z,102397.75
2022-08-08T08:27:59.451Z,102389.94
2022-08-08T08:30:29.266Z,102390.34
2022-08-08T08:32:56.439Z,102379.63
2022-08-08T08:35:30.046Z,102387.19
2022-08-08T08:38:17.535Z,102380.91
2022-08-08T08:40:48.607Z,102379.94
2022-08-08T08:43:18.984Z,102393.09
2022-08-08T08:45:48.370Z,102398.69
2022-08-08T08:48:19.591Z,102386.97
2022-08-08T08:50:49.998Z,102395.03
2022-08-08T08:53:27.309Z,102405.13
2022-08-08T08:56:07.810Z,102396.91
2022-08-08T08:58:46.776Z,102402.50
2022-08-08T09:01:27.243Z,102408.59
2022-08-08T09:04:01.219Z,102409.19
2022-08-08T09:06:34.003Z,102412.28
2022-08-08T09:09:39.882Z,102418.75
2022-08-08T09:12:17.642Z,102409.19
2022-08-08T09:14:48.508Z,102411.91
2022-08-08T09:17:19.060Z,102416.16
2022-08-08T09:22:01.643Z,102420.53
2022-08-08T09:22:35.339Z,102420.25
2022-08-08T09:25:04.552Z,102423.00
2022-08-08T09:27:55.940Z,102408.13
2022-08-08T09:30:22.217Z,102415.31
2022-08-08T09:33:55.669Z,102409.91
2022-08-08T09:35:49.367Z,102416.59
2022-08-08T09:38:30.168Z,102414.59
2022-08-08T09:41:04.488Z,102402.19
2022-08-08T09:44:04.466Z,102404.81
2022-08-08T09:46:25.597Z,102407.59
2022-08-08T09:48:58.433Z,102407.59
2022-08-08T09:52:07.094Z,102404.91
2022-08-08T09:54:42.460Z,102410.84
2022-08-08T09:57:16.905Z,102415.66
2022-08-08T10:00:01.702Z,102408.94
2022-08-08T10:02:36.528Z,102419.09
2022-08-08T10:05:28.012Z,102405.28
2022-08-08T10:07:59.829Z,102417.50
2022-08-08T10:10:36.649Z,102408.28
2022-08-08T10:13:25.993Z,102410.00
2022-08-08T10:16:01.930Z,102401.78
2022-08-08T10:18:34.467Z,102407.09
2022-08-08T10:21:25.382Z,102408.81
2022-08-08T10:23:59.784Z,102402.53
2022-08-08T10:26:51.882Z,102406.31
2022-08-08T10:29:31.172Z,102401.47
2022-08-08T10:32:35.457Z,102398.50
2022-08-08T10:35:11.697Z,102401.22
2022-08-08T10:37:42.015Z,102400.75
2022-08-08T10:40:16.838Z,102392.66
2022-08-08T10:42:45.213Z,102395.75
2022-08-08T10:45:12.305Z,102398.38
2022-08-08T10:47:48.537Z,102395.81
2022-08-08T10:50:23.715Z,102397.69
2022-08-08T10:52:51.495Z,102403.69
2022-08-08T10:55:39.669Z,102398.13
2022-08-08T10:58:09.150Z,102401.78
2022-08-08T11:00:53.365Z,102391.47
2022-08-08T11:04:00.688Z,102392.31
2022-08-08T11:06:35.019Z,102408.31
2022-08-08T11:09:20.078Z,102397.34
2022-08-08T11:12:06.286Z,102399.81
2022-08-08T11:14:48.288Z,102402.13
2022-08-08T11:17:15.980Z,102398.47
2022-08-08T11:19:46.663Z,102398.47
2022-08-08T11:22:26.989Z,102393.75
2022-08-08T11:24:55.824Z,102391.22
2022-08-08T11:27:29.233Z,102391.09
2022-08-08T11:30:19.875Z,102382.59
2022-08-08T11:32:48.326Z,102391.06
2022-08-08T11:35:27.049Z,102384.47
2022-08-08T11:38:38.980Z,102380.03
2022-08-08T11:40:52.548Z,102388.69
2022-08-08T11:43:21.561Z,102388.09
2022-08-08T11:46:09.792Z,102387.69
2022-08-08T11:48:38.595Z,102385.47
2022-08-08T11:51:30.215Z,102384.81
2022-08-08T11:53:55.113Z,102383.88
2022-08-08T11:56:25.768Z,102378.16
2022-08-08T11:58:54.094Z,102374.69
2022-08-08T12:01:31.185Z,102383.16
2022-08-08T12:03:59.723Z,102387.66
2022-08-08T12:06:26.442Z,102388.63
2022-08-08T12:09:05.699Z,102390.75
2022-08-08T12:11:38.827Z,102382.22
2022-08-08T12:14:07.818Z,102383.59
2022-08-08T12:16:49.183Z,102377.63
2022-08-08T12:19:15.956Z,102384.94
2022-08-08T12:21:59.468Z,102368.44
2022-08-08T12:24:43.081Z,102359.91
2022-08-08T12:27:18.998Z,102375.50
2022-08-08T12:29:55.537Z,102366.78
2022-08-08T12:32:22.616Z,102374.50
2022-08-08T12:35:04.636Z,102376.19
2022-08-08T12:37:41.444Z,102371.44
2022-08-08T12:40:23.702Z,102365.75
2022-08-08T12:42:51.968Z,102374.28
2022-08-08T12:45:59.616Z,102369.63
2022-08-08T12:48:35.707Z,102364.84
2022-08-08T12:50:57.656Z,102370.03
2022-08-08T12:53:37.696Z,102363.78
2022-08-08T12:56:18.214Z,102360.75
2022-08-08T12:58:55.497Z,102361.59
2022-08-08T13:01:37.585Z,102357.03
2022-08-08T13:04:18.515Z,102361.66
2022-08-08T13:07:05.983Z,102353.03
2022-08-08T13:09:57.748Z,102356.50
2022-08-08T13:12:32.590Z,102360.31
2022-08-08T13:15:02.445Z,102353.84
2022-08-08T13:17:53.889Z,102354.06
2022-08-08T13:20:19.898Z,102355.66
2022-08-08T13:22:47.480Z,102359.59
2022-08-08T13:25:22.162Z,102360.47
2022-08-08T13:27:56.583Z,102352.50
2022-08-08T13:30:28.264Z,102357.47
2022-08-08T13:33:01.161Z,102372.53
2022-08-08T13:35:38.117Z,102364.78
2022-08-08T13:38:08.396Z,102362.94
2022-08-08T13:40:41.326Z,102365.81
2022-08-08T13:43:08.285Z,102364.88
2022-08-08T13:45:35.236Z,102368.69
2022-08-08T13:48:04.165Z,102371.69
2022-08-08T13:50:48.039Z,102370.66
2022-08-08T13:53:34.160Z,102366.22
2022-08-08T13:56:10.996Z,102364.13
2022-08-08T13:58:49.093Z,102370.44
2022-08-08T14:01:41.928Z,102362.06
2022-08-08T14:04:21.517Z,102363.53
2022-08-08T14:06:48.226Z,102366.50
2022-08-08T14:09:25.609Z,102366.91
2022-08-08T14:12:00.366Z,102365.66
2022-08-08T14:14:41.603Z,102366.69
2022-08-08T14:17:22.109Z,102350.28
2022-08-08T14:19:57.973Z,102364.41
2022-08-08T14:22:37.814Z,102365.44
2022-08-08T14:25:15.274Z,102370.31
2022-08-08T14:28:00.025Z,102366.28
2022-08-08T14:30:34.438Z,102362.53
2022-08-08T14:33:01.370Z,102366.94
2022-08-08T14:35:35.827Z,102372.00
2022-08-08T14:38:32.963Z,102369.03
2022-08-08T14:40:54.079Z,102369.25
2022-08-08T14:44:01.676Z,102373.47
2022-08-08T14:46:32.561Z,102366.50
2022-08-08T14:49:09.564Z,102368.84
2022-08-08T14:51:53.019Z,102367.75
2022-08-08T14:54:28.864Z,102367.75
2022-08-08T14:56:57.134Z,102363.38
2022-08-08T14:59:44.496Z,102367.78
2022-08-08T15:02:15.289Z,102358.94
2022-08-08T15:04:42.347Z,102365.66
2022-08-08T15:07:21.441Z,102372.56
2022-08-08T15:09:49.607Z,102365.41
2022-08-08T15:12:34.793Z,102365.19
2022-08-08T15:15:01.646Z,102361.38
2022-08-08T15:17:33.693Z,102355.47
2022-08-08T15:20:04.312Z,102356.56
2022-08-08T15:22:31.626Z,102358.69
2022-08-08T15:24:58.163Z,102359.09
2022-08-08T15:28:04.953Z,102354.06
2022-08-08T15:30:14.540Z,102353.44
2022-08-08T15:32:43.227Z,102360.41
2022-08-08T15:35:10.859Z,102357.44
2022-08-08T15:37:38.064Z,102357.88
2022-08-08T15:40:07.104Z,102361.88
2022-08-08T15:42:37.996Z,102367.34
2022-08-08T15:45:06.507Z,102367.56
2022-08-08T15:47:32.944Z,102365.25
2022-08-08T15:49:59.883Z,102357.66
2022-08-08T15:52:26.388Z,102361.44
2022-08-08T15:54:53.232Z,102356.19
2022-08-08T15:57:21.103Z,102360.59
2022-08-08T16:00:05.099Z,102357.44
2022-08-08T16:02:34.982Z,102366.94
2022-08-08T16:05:01.891Z,102366.91
2022-08-08T16:07:39.323Z,102367.34
2022-08-08T16:13:10.645Z,102372.22
2022-08-08T16:13:30.721Z,102359.75
2022-08-08T16:15:59.133Z,102361.47
2022-08-08T16:18:27.792Z,102357.88
2022-08-08T16:21:00.487Z,102360.16
2022-08-08T16:23:31.398Z,102359.91
2022-08-08T16:26:03.847Z,102349.16
2022-08-08T16:28:35.776Z,102341.56
2022-08-08T16:31:06.439Z,102357.31
2022-08-08T16:33:38.570Z,102353.91
2022-08-08T16:36:08.518Z,102350.34
2022-08-08T16:38:44.355Z,102355.28
2022-08-08T16:41:20.298Z,102351.44
2022-08-08T16:43:50.622Z,102360.88
2022-08-08T16:46:43.078Z,102352.19
2022-08-08T16:49:05.225Z,102363.53
2022-08-08T16:55:00.736Z,102362.66
2022-08-08T16:55:05.138Z,102360.94
2022-08-08T16:57:22.841Z,102356.06
2022-08-08T16:59:54.219Z,102355.63
2022-08-08T17:02:38.585Z,102357.44
2022-08-08T17:05:08.004Z,102363.28
2022-08-08T17:07:39.372Z,102371.03
2022-08-08T17:10:08.786Z,102374.34
2022-08-08T17:12:36.789Z,102369.06
2022-08-08T17:15:17.672Z,102378.03
2022-08-08T17:18:02.969Z,102366.03
2022-08-08T17:20:39.831Z,102371.69
2022-08-08T17:23:18.502Z,102372.06
2022-08-08T17:25:54.543Z,102375.44
2022-08-08T17:28:34.349Z,102374.63
2022-08-08T17:31:45.573Z,102385.38
2022-08-08T17:34:52.768Z,102380.53
2022-08-08T17:36:36.537Z,102388.91
2022-08-08T17:39:05.322Z,102387.13
2022-08-08T17:41:58.111Z,102386.88
2022-08-08T17:44:26.929Z,102390.13
2022-08-08T17:46:55.405Z,102387.06
2022-08-08T17:49:24.897Z,102392.19
2022-08-08T17:51:55.341Z,102389.13
2022-08-08T17:54:25.940Z,102392.31
2022-08-08T17:56:53.969Z,102389.06
2022-08-08T17:59:23.471Z,102382.16
2022-08-08T18:01:58.554Z,102397.16
2022-08-08T18:04:31.135Z,102390.50
2022-08-08T18:06:59.735Z,102396.06
2022-08-08T18:09:27.529Z,102403.44
2022-08-08T18:12:05.072Z,102399.13
2022-08-08T18:14:36.833Z,102404.66
2022-08-08T18:17:04.420Z,102401.19
2022-08-08T18:19:45.646Z,102406.34
2022-08-08T18:22:50.263Z,102409.16
2022-08-08T18:25:00.590Z,102408.00
2022-08-08T18:27:27.759Z,102415.00
2022-08-08T18:29:57.540Z,102413.00
2022-08-08T18:32:24.024Z,102420.88
2022-08-08T18:34:50.521Z,102415.34
2022-08-08T18:37:33.632Z,102410.13
2022-08-08T18:40:01.444Z,102420.31
2022-08-08T18:42:27.954Z,102420.59
2022-08-08T18:44:55.294Z,102421.28
2022-08-08T18:47:23.991Z,102423.25
2022-08-08T18:49:58.754Z,102426.88
2022-08-08T18:52:28.225Z,102428.94
2022-08-08T18:55:00.233Z,102428.13
2022-08-08T18:57:41.375Z,102424.75
2022-08-08T19:00:15.783Z,102425.03
2022-08-08T19:02:48.157Z,102429.31
2022-08-08T19:05:21.616Z,102434.28
2022-08-08T19:07:52.276Z,102435.66
2022-08-08T19:10:19.541Z,102437.38
2022-08-08T19:12:49.892Z,102451.97
2022-08-08T19:15:21.632Z,102450.47
2022-08-08T19:18:32.344Z,102457.28
2022-08-08T19:20:39.427Z,102448.63
2022-08-08T19:23:08.619Z,102454.88
2022-08-08T19:26:02.042Z,102462.66
2022-08-08T19:28:24.234Z,102466.03
2022-08-08T19:31:04.038Z,102462.75
2022-08-08T19:33:52.022Z,102462.56
2022-08-08T19:36:27.771Z,102468.44
2022-08-08T19:38:56.238Z,102459.06
2022-08-08T19:41:30.713Z,102462.06
2022-08-08T19:44:03.045Z,102461.34
2022-08-08T19:46:33.305Z,102462.97
2022-08-08T19:49:00.910Z,102465.78
2022-08-08T19:51:34.120Z,102463.91
2022-08-08T19:54:07.127Z,102465.53
2022-08-08T19:56:39.749Z,102469.91
2022-08-08T19:59:08.733Z,102477.31
2022-08-08T20:02:01.719Z,102476.09
2022-08-08T20:04:22.388Z,102475.53
2022-08-08T20:06:50.801Z,102473.34
2022-08-08T20:09:22.803Z,102482.63
2022-08-08T20:11:50.678Z,102483.94
2022-08-08T20:14:34.278Z,102481.16
2022-08-08T20:17:02.367Z,102485.19
2022-08-08T20:19:33.590Z,102486.94
2022-08-08T20:22:20.533Z,102496.41
2022-08-08T20:24:47.820Z,102504.72
2022-08-08T20:27:33.068Z,102503.66
2022-08-08T20:30:01.561Z,102498.97
2022-08-08T20:32:29.971Z,102508.00
2022-08-08T20:35:01.046Z,102498.81
2022-08-08T20:37:46.622Z,102509.25
2022-08-08T20:40:16.762Z,102501.03
2022-08-08T20:42:54.675Z,102504.19
2022-08-08T20:45:54.973Z,102512.19
2022-08-08T20:48:08.725Z,102517.03
2022-08-08T20:50:35.294Z,102512.78
2022-08-08T20:53:02.109Z,102503.16
2022-08-08T20:55:29.630Z,102507.69
2022-08-08T20:58:02.951Z,102510.94
2022-08-08T21:00:29.447Z,102508.22
2022-08-08T21:02:56.961Z,102509.78
2022-08-08T21:05:23.941Z,102512.75
2022-08-08T21:08:36.489Z,102513.31
2022-08-08T21:10:45.178Z,102514.81
2022-08-08T21:13:11.620Z,102516.22
2022-08-08T21:16:04.909Z,102509.81
2022-08-08T21:18:27.768Z,102507.97
2022-08-08T21:20:54.599Z,102508.69
2022-08-08T21:23:25.018Z,102513.25
2022-08-08T21:26:08.157Z,102516.09
2022-08-08T21:28:36.299Z,102510.97
2022-08-08T21:31:22.569Z,102514.81
2022-08-08T21:33:50.476Z,102515.84
2022-08-08T21:36:20.126Z,102519.28
2022-08-08T21:38:48.185Z,102521.16
2022-08-08T21:41:28.895Z,102510.94
2022-08-08T21:44:01.098Z,102501.88
2022-08-08T21:48:02.089Z,102518.38
2022-08-08T21:49:16.692Z,102520.84
2022-08-08T21:54:18.802Z,102510.63
2022-08-08T21:54:54.727Z,102515.75
2022-08-08T21:57:17.771Z,102519.22
2022-08-08T22:00:03.667Z,102518.03
2022-08-08T22:02:30.856Z,102522.34
2022-08-08T22:04:58.908Z,102523.91
2022-08-08T22:07:39.437Z,102530.91
2022-08-08T22:10:18.390Z,102529.47
2022-08-08T22:13:16.944Z,102537.16
2022-08-08T22:15:43.844Z,102537.59
2022-08-08T22:18:26.886Z,102525.81
2022-08-08T22:20:54.753Z,102540.28
2022-08-08T22:23:21.167Z,102537.91
2022-08-08T22:26:27.398Z,102545.41
2022-08-08T22:29:13.192Z,102537.75
2022-08-08T22:31:25.003Z,102529.53
2022-08-08T22:34:13.178Z,102536.47
2022-08-08T22:36:42.816Z,102534.06
2022-08-08T22:39:18.901Z,102542.03
2022-08-08T22:41:46.467Z,102543.16
2022-08-08T22:44:15.930Z,102542.44
2022-08-08T22:46:42.598Z,102546.53
2022-08-08T22:49:12.808Z,102543.84
2022-08-08T22:51:46.770Z,102552.22
2022-08-08T22:54:31.900Z,102552.75
2022-08-08T22:56:59.613Z,102554.16
2022-08-08T22:59:26.050Z,102548.59
2022-08-08T23:02:02.102Z,102552.84
2022-08-08T23:04:31.931Z,102552.69
2022-08-08T23:07:02.664Z,102550.56
2022-08-08T23:09:30.747Z,102547.69
2022-08-08T23:12:27.705Z,102557.19
2022-08-08T23:14:56.108Z,102562.38
2022-08-08T23:17:30.035Z,102562.09
2022-08-08T23:19:56.873Z,102557.97
2022-08-08T23:22:23.386Z,102551.38
2022-08-08T23:24:50.813Z,102557.59
2022-08-08T23:27:37.794Z,102561.78
2022-08-08T23:30:05.546Z,102562.34
2022-08-08T23:32:35.914Z,102571.31
2022-08-08T23:35:12.674Z,102574.31
2022-08-08T23:38:01.990Z,102566.59
2022-08-08T23:40:30.271Z,102563.56
2022-08-08T23:42:56.841Z,102570.31
2022-08-08T23:49:03.021Z,102577.94
2022-08-08T23:49:04.026Z,102576.59
2022-08-08T23:50:57.534Z,102566.38
2022-08-08T23:54:05.855Z,102560.53
2022-08-08T23:56:10.878Z,102568.00
2022-08-08T23:58:38.894Z,102565.00
